createdAt,value
2023-05-10T00:01:34.287Z,99.90
2023-05-10T00:04:02.248Z,99.90
2023-05-10T00:06:28.994Z,99.90
2023-05-10T00:08:55.727Z,99.90
2023-05-10T00:11:23.169Z,99.90
2023-05-10T00:13:50.112Z,99.90
2023-05-10T00:16:16.933Z,99.90
2023-05-10T00:18:43.718Z,99.90
2023-05-10T00:21:10.496Z,99.90
2023-05-10T00:23:37.302Z,99.90
2023-05-10T00:26:04.149Z,99.90
2023-05-10T00:28:30.942Z,99.90
2023-05-10T00:30:57.793Z,99.90
2023-05-10T00:33:24.607Z,99.90
2023-05-10T00:35:51.635Z,99.90
2023-05-10T00:38:18.499Z,99.90
2023-05-10T00:40:45.281Z,99.90
2023-05-10T00:43:12.133Z,99.90
2023-05-10T00:45:40.816Z,99.90
2023-05-10T00:48:07.859Z,99.90
2023-05-10T00:50:35.092Z,99.90
2023-05-10T00:53:03.253Z,99.90
2023-05-10T00:55:30.193Z,99.90
2023-05-10T00:57:57.111Z,99.90
2023-05-10T01:00:23.860Z,99.90
2023-05-10T01:02:51.189Z,99.90
2023-05-10T01:05:18.260Z,99.90
2023-05-10T01:07:45.037Z,99.90
2023-05-10T01:13:57.538Z,99.90
2023-05-10T01:16:25.776Z,99.90
2023-05-10T01:18:53.130Z,99.90
2023-05-10T01:21:40.460Z,99.90
2023-05-10T01:24:51.864Z,99.90
2023-05-10T01:27:49.084Z,99.90
2023-05-10T01:30:24.888Z,99.90
2023-05-10T01:33:10.746Z,99.90
2023-05-10T01:35:46.736Z,99.90
2023-05-10T01:38:26.741Z,99.90
2023-05-10T01:41:19.556Z,99.90
2023-05-10T01:44:04.532Z,99.90
2023-05-10T01:46:39.514Z,99.90
2023-05-10T01:49:22.967Z,99.90
2023-05-10T01:51:55.841Z,99.90
2023-05-10T01:54:25.564Z,99.90
2023-05-10T01:57:00.403Z,99.90
2023-05-10T01:59:31.516Z,99.90
2023-05-10T02:02:00.212Z,99.90
2023-05-10T02:04:28.015Z,99.90
2023-05-10T02:06:56.074Z,99.90
2023-05-10T02:09:24.404Z,99.90
2023-05-10T02:11:51.609Z,99.90
2023-05-10T02:14:19.986Z,99.90
2023-05-10T02:16:48.245Z,99.90
2023-05-10T02:19:16.228Z,99.90
2023-05-10T02:21:44.056Z,99.90
2023-05-10T02:24:12.404Z,99.90
2023-05-10T02:26:40.490Z,99.90
2023-05-10T02:29:09.074Z,99.90
2023-05-10T02:31:36.533Z,99.90
2023-05-10T02:34:05.021Z,99.90
2023-05-10T02:36:33.049Z,99.90
2023-05-10T02:39:02.048Z,99.90
2023-05-10T02:41:29.563Z,99.90
2023-05-10T02:44:00.971Z,99.90
2023-05-10T02:46:27.914Z,99.90
2023-05-10T02:48:54.796Z,99.90
2023-05-10T02:51:25.970Z,99.90
2023-05-10T02:53:56.081Z,99.90
2023-05-10T02:56:30.833Z,99.90
2023-05-10T02:58:57.672Z,99.90
2023-05-10T03:01:24.952Z,99.90
2023-05-10T03:03:51.888Z,99.90
2023-05-10T03:06:18.759Z,99.90
2023-05-10T03:08:46.450Z,99.90
2023-05-10T03:11:16.135Z,99.90
2023-05-10T03:14:05.747Z,99.90
2023-05-10T03:16:53.503Z,99.90
2023-05-10T03:19:33.308Z,99.90
2023-05-10T03:22:04.785Z,99.90
2023-05-10T03:24:33.156Z,99.90
2023-05-10T03:27:03.873Z,99.90
2023-05-10T03:29:32.208Z,99.90
2023-05-10T03:32:00.597Z,99.90
2023-05-10T03:34:27.357Z,99.90
2023-05-10T03:36:54.102Z,99.90
2023-05-10T03:39:22.302Z,99.90
2023-05-10T03:41:49.105Z,99.90
2023-05-10T03:44:15.777Z,99.90
2023-05-10T03:46:42.539Z,99.90
2023-05-10T03:49:09.273Z,99.90
2023-05-10T03:51:36.383Z,99.90
2023-05-10T03:54:03.136Z,99.90
2023-05-10T03:56:29.835Z,99.90
2023-05-10T03:58:56.608Z,99.90
2023-05-10T04:01:23.350Z,99.90
2023-05-10T04:03:50.141Z,99.90
2023-05-10T04:06:16.971Z,99.90
2023-05-10T04:08:43.785Z,99.90
2023-05-10T04:11:13.589Z,99.90
2023-05-10T04:13:40.439Z,99.90
2023-05-10T04:16:07.283Z,99.90
2023-05-10T04:18:34.140Z,99.90
2023-05-10T04:21:00.937Z,99.90
2023-05-10T04:23:28.656Z,99.90
2023-05-10T04:26:01.605Z,99.90
2023-05-10T04:28:28.513Z,99.90
2023-05-10T04:31:04.991Z,99.90
2023-05-10T04:33:32.405Z,99.90
2023-05-10T04:35:59.194Z,99.90
2023-05-10T04:38:26.162Z,99.90
2023-05-10T04:40:52.896Z,99.90
2023-05-10T04:43:19.924Z,99.90
2023-05-10T04:45:46.852Z,99.90
2023-05-10T04:48:13.986Z,99.90
2023-05-10T04:50:41.106Z,99.90
2023-05-10T04:53:07.969Z,99.90
2023-05-10T04:55:34.749Z,99.90
2023-05-10T04:58:01.609Z,99.90
2023-05-10T05:00:28.415Z,99.90
2023-05-10T05:02:55.250Z,99.90
2023-05-10T05:05:22.067Z,99.90
2023-05-10T05:07:48.831Z,99.90
2023-05-10T05:10:16.379Z,99.90
2023-05-10T05:12:43.341Z,99.90
2023-05-10T05:15:10.729Z,99.90
2023-05-10T05:17:37.727Z,99.90
2023-05-10T05:20:05.029Z,99.90
2023-05-10T05:22:31.717Z,99.90
2023-05-10T05:25:03.426Z,99.90
2023-05-10T05:27:30.738Z,99.90
2023-05-10T05:29:58.237Z,99.90
2023-05-10T05:32:25.811Z,99.90
2023-05-10T05:34:52.911Z,99.90
2023-05-10T05:37:22.069Z,99.90
2023-05-10T05:39:48.888Z,99.90
2023-05-10T05:42:17.652Z,99.90
2023-05-10T05:44:45.034Z,99.90
2023-05-10T05:47:11.917Z,99.90
2023-05-10T05:49:38.622Z,99.90
2023-05-10T05:52:05.689Z,99.90
2023-05-10T05:54:32.838Z,99.90
2023-05-10T05:57:01.380Z,99.90
2023-05-10T05:59:28.529Z,99.90
2023-05-10T06:01:55.501Z,99.90
2023-05-10T06:04:22.462Z,99.90
2023-05-10T06:06:49.438Z,99.90
2023-05-10T06:09:16.789Z,99.90
2023-05-10T06:11:43.899Z,99.90
2023-05-10T06:14:11.637Z,99.90
2023-05-10T06:16:38.518Z,99.90
2023-05-10T06:19:05.329Z,99.90
2023-05-10T06:21:32.161Z,99.90
2023-05-10T06:23:58.890Z,99.90
2023-05-10T06:26:25.870Z,99.90
2023-05-10T06:28:52.556Z,99.90
2023-05-10T06:31:19.499Z,99.90
2023-05-10T06:33:46.345Z,99.90
2023-05-10T06:36:14.179Z,99.90
2023-05-10T06:38:41.092Z,99.90
2023-05-10T06:41:07.859Z,99.90
2023-05-10T06:43:34.674Z,99.90
2023-05-10T06:46:01.462Z,99.90
2023-05-10T06:48:28.565Z,99.90
2023-05-10T06:50:55.391Z,99.90
2023-05-10T06:53:22.162Z,99.90
2023-05-10T06:55:50.633Z,99.90
2023-05-10T06:58:17.514Z,99.90
2023-05-10T07:00:44.841Z,99.90
2023-05-10T07:03:12.103Z,99.90
2023-05-10T07:05:39.122Z,99.90
2023-05-10T07:08:06.077Z,99.90
2023-05-10T07:10:33.656Z,99.90
2023-05-10T07:13:01.360Z,99.90
2023-05-10T07:15:29.028Z,99.90
2023-05-10T07:17:56.724Z,99.90
2023-05-10T07:20:23.599Z,99.90
2023-05-10T07:22:50.449Z,99.90
2023-05-10T07:25:17.457Z,99.90
2023-05-10T07:27:44.497Z,99.90
2023-05-10T07:30:11.836Z,99.90
2023-05-10T07:32:40.441Z,99.90
2023-05-10T07:35:07.773Z,99.90
2023-05-10T07:37:34.586Z,99.90
2023-05-10T07:40:01.500Z,99.90
2023-05-10T07:42:28.347Z,99.90
2023-05-10T07:44:55.211Z,99.90
2023-05-10T07:47:22.010Z,99.90
2023-05-10T07:49:48.813Z,99.90
2023-05-10T07:52:16.480Z,99.90
2023-05-10T07:54:43.208Z,99.90
2023-05-10T07:57:09.920Z,99.90
2023-05-10T07:59:36.772Z,99.90
2023-05-10T08:02:03.697Z,99.90
2023-05-10T08:04:30.520Z,99.90
2023-05-10T08:06:57.278Z,99.90
2023-05-10T08:09:25.152Z,99.90
2023-05-10T08:11:52.092Z,99.90
2023-05-10T08:14:19.160Z,99.90
2023-05-10T08:16:46.153Z,99.90
2023-05-10T08:19:13.013Z,99.90
2023-05-10T08:21:41.447Z,99.90
2023-05-10T08:24:08.290Z,99.90
2023-05-10T08:26:35.135Z,99.90
2023-05-10T08:29:02.004Z,99.90
2023-05-10T08:31:28.724Z,99.90
2023-05-10T08:33:55.585Z,99.90
2023-05-10T08:36:24.998Z,99.90
2023-05-10T08:38:53.057Z,99.90
2023-05-10T08:41:24.875Z,99.90
2023-05-10T08:43:52.584Z,99.90
2023-05-10T08:46:21.344Z,99.90
2023-05-10T08:48:50.325Z,99.90
2023-05-10T08:51:24.773Z,99.90
2023-05-10T08:53:51.600Z,99.90
2023-05-10T08:56:18.947Z,99.90
2023-05-10T08:58:46.082Z,99.90
2023-05-10T09:01:14.693Z,99.90
2023-05-10T09:03:41.836Z,99.90
2023-05-10T09:06:09.006Z,99.90
2023-05-10T09:08:37.599Z,99.90
2023-05-10T09:11:04.791Z,99.90
2023-05-10T09:13:32.642Z,99.90
2023-05-10T09:16:06.963Z,99.90
2023-05-10T09:18:40.800Z,99.90
2023-05-10T09:21:07.566Z,99.90
2023-05-10T09:23:34.504Z,99.90
2023-05-10T09:26:07.817Z,99.90
2023-05-10T09:28:58.087Z,99.90
2023-05-10T09:31:26.763Z,99.90
2023-05-10T09:33:54.032Z,99.90
2023-05-10T09:36:20.858Z,99.90
2023-05-10T09:38:52.909Z,99.90
2023-05-10T09:41:21.994Z,99.90
2023-05-10T09:43:49.172Z,99.90
2023-05-10T09:46:19.207Z,99.90
2023-05-10T09:48:48.437Z,99.90
2023-05-10T09:51:21.792Z,99.90
2023-05-10T09:53:49.760Z,99.90
2023-05-10T09:56:34.721Z,99.90
2023-05-10T09:59:04.934Z,99.90
2023-05-10T10:01:32.036Z,99.90
2023-05-10T10:03:59.635Z,99.90
2023-05-10T10:06:30.378Z,99.90
2023-05-10T10:08:58.098Z,99.90
2023-05-10T10:11:25.200Z,99.90
2023-05-10T10:13:52.075Z,99.90
2023-05-10T10:16:19.157Z,99.90
2023-05-10T10:18:46.052Z,99.90
2023-05-10T10:21:15.981Z,99.90
2023-05-10T10:23:42.864Z,99.90
2023-05-10T10:26:09.789Z,99.90
2023-05-10T10:29:22.521Z,99.90
2023-05-10T10:32:10.054Z,99.90
2023-05-10T10:34:37.914Z,99.90
2023-05-10T10:37:08.070Z,99.90
2023-05-10T10:39:37.655Z,99.90
2023-05-10T10:42:05.653Z,99.90
2023-05-10T10:44:40.329Z,99.90
2023-05-10T10:47:14.105Z,99.90
2023-05-10T10:49:52.703Z,99.90
2023-05-10T10:52:35.941Z,99.90
2023-05-10T10:55:12.756Z,99.90
2023-05-10T10:57:49.951Z,99.90
2023-05-10T11:00:29.681Z,99.90
2023-05-10T11:03:14.600Z,99.90
2023-05-10T11:05:52.043Z,99.90
2023-05-10T11:08:35.762Z,99.90
2023-05-10T11:11:09.909Z,99.90
2023-05-10T11:13:42.839Z,99.90
2023-05-10T11:16:25.809Z,99.90
2023-05-10T11:19:00.982Z,99.90
2023-05-10T11:21:27.938Z,99.90
2023-05-10T11:23:57.611Z,99.90
2023-05-10T11:26:27.141Z,99.90
2023-05-10T11:28:56.332Z,99.90
2023-05-10T11:31:23.916Z,99.90
2023-05-10T11:33:53.946Z,99.90
2023-05-10T11:36:34.266Z,99.90
2023-05-10T11:39:01.177Z,99.90
2023-05-10T11:41:30.676Z,99.90
2023-05-10T11:43:58.792Z,99.90
2023-05-10T11:46:27.904Z,99.80
2023-05-10T11:49:05.181Z,99.60
2023-05-10T11:51:36.710Z,99.60
2023-05-10T11:54:09.314Z,99.70
2023-05-10T11:56:36.999Z,99.30
2023-05-10T11:59:05.330Z,99.50
2023-05-10T12:01:32.507Z,99.50
2023-05-10T12:04:01.139Z,99.90
2023-05-10T12:06:30.599Z,99.40
2023-05-10T12:08:57.910Z,99.30
2023-05-10T12:11:28.221Z,99.00
2023-05-10T12:13:57.162Z,99.50
2023-05-10T12:16:26.585Z,99.30
2023-05-10T12:18:55.149Z,98.70
2023-05-10T12:21:22.484Z,98.60
2023-05-10T12:23:54.608Z,98.60
2023-05-10T12:26:27.376Z,98.90
2023-05-10T12:28:55.267Z,99.00
2023-05-10T12:31:22.241Z,99.20
2023-05-10T12:33:50.376Z,98.80
2023-05-10T12:36:18.987Z,99.10
2023-05-10T12:38:49.493Z,98.40
2023-05-10T12:41:18.557Z,98.60
2023-05-10T12:43:49.219Z,98.40
2023-05-10T12:46:18.568Z,98.90
2023-05-10T12:49:00.211Z,99.00
2023-05-10T12:51:33.732Z,98.70
2023-05-10T12:54:00.485Z,98.10
2023-05-10T12:56:27.363Z,98.00
2023-05-10T12:58:54.112Z,97.70
2023-05-10T13:01:20.944Z,96.80
2023-05-10T13:03:47.772Z,96.80
2023-05-10T13:06:15.059Z,97.10
2023-05-10T13:08:41.843Z,97.50
2023-05-10T13:11:08.715Z,97.70
2023-05-10T13:13:35.468Z,97.70
2023-05-10T13:16:02.326Z,97.80
2023-05-10T13:18:29.276Z,97.70
2023-05-10T13:20:56.805Z,97.60
2023-05-10T13:23:23.641Z,97.90
2023-05-10T13:25:50.794Z,97.60
2023-05-10T13:28:17.541Z,97.70
2023-05-10T13:30:44.296Z,98.10
2023-05-10T13:33:11.129Z,98.50
2023-05-10T13:35:37.947Z,98.60
2023-05-10T13:38:04.702Z,98.50
2023-05-10T13:40:31.639Z,98.40
2023-05-10T13:42:58.558Z,98.30
2023-05-10T13:45:25.432Z,97.80
2023-05-10T13:47:53.157Z,98.00
2023-05-10T13:50:20.215Z,97.90
2023-05-10T13:52:47.053Z,97.50
2023-05-10T13:55:14.270Z,97.50
2023-05-10T13:57:41.075Z,97.40
2023-05-10T14:00:08.661Z,97.80
2023-05-10T14:02:35.498Z,97.80
2023-05-10T14:05:02.454Z,97.30
2023-05-10T14:07:29.270Z,96.30
2023-05-10T14:09:56.006Z,96.20
2023-05-10T14:12:22.701Z,96.40
2023-05-10T14:14:49.887Z,96.50
2023-05-10T14:17:17.145Z,97.10
2023-05-10T14:19:44.246Z,97.00
2023-05-10T14:22:11.226Z,96.60
2023-05-10T14:24:39.223Z,96.70
2023-05-10T14:27:07.024Z,96.70
2023-05-10T14:29:34.023Z,96.90
2023-05-10T14:32:00.937Z,96.20
2023-05-10T14:34:27.726Z,96.30
2023-05-10T14:36:54.492Z,96.40
2023-05-10T14:39:21.320Z,95.90
2023-05-10T14:41:48.393Z,94.60
2023-05-10T14:44:16.401Z,94.20
2023-05-10T14:46:43.153Z,93.40
2023-05-10T14:49:09.928Z,93.90
2023-05-10T14:51:37.908Z,93.80
2023-05-10T14:54:04.750Z,94.10
2023-05-10T14:56:31.564Z,94.40
2023-05-10T14:58:58.452Z,94.30
2023-05-10T15:01:26.208Z,94.00
2023-05-10T15:03:53.635Z,94.00
2023-05-10T15:06:31.079Z,93.60
2023-05-10T15:08:57.921Z,93.60
2023-05-10T15:11:25.005Z,93.70
2023-05-10T15:13:51.775Z,93.90
2023-05-10T15:16:18.622Z,93.80
2023-05-10T15:18:45.478Z,94.20
2023-05-10T15:21:13.032Z,93.90
2023-05-10T15:23:39.716Z,93.80
2023-05-10T15:26:06.923Z,94.10
2023-05-10T15:28:34.401Z,94.00
2023-05-10T15:31:01.489Z,94.20
2023-05-10T15:33:28.529Z,94.50
2023-05-10T15:35:55.401Z,95.00
2023-05-10T15:38:22.433Z,95.30
2023-05-10T15:40:49.281Z,95.30
2023-05-10T15:43:16.301Z,95.00
2023-05-10T15:45:43.377Z,94.80
2023-05-10T15:48:10.143Z,94.70
2023-05-10T15:50:36.912Z,95.00
2023-05-10T15:53:03.697Z,95.20
2023-05-10T15:55:30.623Z,95.10
2023-05-10T15:57:57.434Z,95.00
2023-05-10T16:00:24.295Z,95.70
2023-05-10T16:02:54.017Z,95.40
2023-05-10T16:05:21.007Z,95.40
2023-05-10T16:07:48.001Z,95.70
2023-05-10T16:10:14.913Z,95.80
2023-05-10T16:12:41.694Z,96.10
2023-05-10T16:15:09.399Z,96.10
2023-05-10T16:17:36.248Z,96.30
2023-05-10T16:20:03.346Z,96.50
2023-05-10T16:22:30.388Z,96.60
2023-05-10T16:24:57.957Z,97.10
2023-05-10T16:27:25.179Z,96.60
2023-05-10T16:29:52.257Z,96.60
2023-05-10T16:32:19.085Z,96.70
2023-05-10T16:34:45.856Z,96.50
2023-05-10T16:37:14.641Z,96.50
2023-05-10T16:39:41.485Z,96.60
2023-05-10T16:42:08.284Z,96.40
2023-05-10T16:44:35.186Z,96.60
2023-05-10T16:47:03.154Z,96.60
2023-05-10T16:49:30.094Z,96.70
2023-05-10T16:51:56.891Z,96.60
2023-05-10T16:54:23.634Z,96.40
2023-05-10T16:56:50.440Z,96.90
2023-05-10T16:59:17.471Z,97.10
2023-05-10T17:01:44.935Z,96.80
2023-05-10T17:04:11.786Z,96.40
2023-05-10T17:06:38.674Z,95.90
2023-05-10T17:09:05.925Z,96.10
2023-05-10T17:11:33.050Z,96.10
2023-05-10T17:14:01.344Z,95.40
2023-05-10T17:16:29.071Z,95.40
2023-05-10T17:18:56.001Z,95.20
2023-05-10T17:21:22.828Z,94.60
2023-05-10T17:23:49.582Z,94.80
2023-05-10T17:26:17.084Z,95.00
2023-05-10T17:28:43.825Z,95.50
2023-05-10T17:31:10.689Z,95.90
2023-05-10T17:33:37.658Z,96.20
2023-05-10T17:36:04.555Z,96.40
2023-05-10T17:38:31.379Z,96.70
2023-05-10T17:40:58.186Z,96.60
2023-05-10T17:43:26.082Z,96.70
2023-05-10T17:45:53.047Z,96.80
2023-05-10T17:48:19.884Z,96.80
2023-05-10T17:50:46.857Z,96.90
2023-05-10T17:53:13.697Z,97.00
2023-05-10T17:55:42.036Z,97.10
2023-05-10T17:58:10.585Z,97.10
2023-05-10T18:00:37.618Z,97.30
2023-05-10T18:03:05.634Z,97.40
2023-05-10T18:05:36.552Z,97.10
2023-05-10T18:08:04.332Z,96.70
2023-05-10T18:10:31.651Z,96.90
2023-05-10T18:12:58.626Z,97.00
2023-05-10T18:15:26.535Z,96.90
2023-05-10T18:17:53.499Z,96.60
2023-05-10T18:20:20.340Z,96.30
2023-05-10T18:22:47.408Z,96.70
2023-05-10T18:25:14.311Z,96.80
2023-05-10T18:27:41.288Z,97.10
2023-05-10T18:30:10.164Z,97.20
2023-05-10T18:32:38.456Z,97.60
2023-05-10T18:35:06.962Z,97.80
2023-05-10T18:37:34.132Z,98.10
2023-05-10T18:40:01.430Z,97.90
2023-05-10T18:42:29.931Z,98.10
2023-05-10T18:44:56.784Z,98.30
2023-05-10T18:47:23.750Z,98.50
2023-05-10T18:49:50.670Z,98.70
2023-05-10T18:52:20.769Z,98.90
2023-05-10T18:54:48.994Z,99.10
2023-05-10T18:57:16.128Z,98.90
2023-05-10T18:59:43.141Z,98.90
2023-05-10T19:02:10.587Z,98.20
2023-05-10T19:04:38.661Z,98.20
2023-05-10T19:07:05.714Z,98.20
2023-05-10T19:09:32.778Z,97.90
2023-05-10T19:11:59.797Z,98.20
2023-05-10T19:14:26.845Z,98.50
2023-05-10T19:16:55.304Z,98.60
2023-05-10T19:19:22.353Z,98.80
2023-05-10T19:21:49.468Z,99.10
2023-05-10T19:24:16.800Z,99.30
2023-05-10T19:26:46.897Z,99.50
2023-05-10T19:29:14.212Z,99.50
2023-05-10T19:31:41.251Z,99.70
2023-05-10T19:34:08.452Z,99.90
2023-05-10T19:36:36.608Z,99.90
2023-05-10T19:39:03.573Z,99.90
2023-05-10T19:41:30.582Z,99.90
2023-05-10T19:43:57.601Z,99.90
2023-05-10T19:46:24.619Z,99.90
2023-05-10T19:48:52.394Z,99.90
2023-05-10T19:51:19.336Z,99.90
2023-05-10T19:53:46.478Z,99.90
2023-05-10T19:56:15.007Z,99.90
2023-05-10T19:58:44.149Z,99.90
2023-05-10T20:01:11.799Z,99.90
2023-05-10T20:03:38.876Z,99.90
2023-05-10T20:06:06.176Z,99.90
2023-05-10T20:08:33.391Z,99.90
2023-05-10T20:11:02.796Z,99.90
2023-05-10T20:13:30.025Z,99.90
2023-05-10T20:15:58.242Z,99.90
2023-05-10T20:18:25.754Z,99.90
2023-05-10T20:20:57.668Z,99.90
2023-05-10T20:23:26.157Z,99.90
2023-05-10T20:25:54.814Z,99.90
2023-05-10T20:28:23.868Z,99.90
2023-05-10T20:30:57.347Z,99.90
2023-05-10T20:33:25.146Z,99.90
2023-05-10T20:35:52.468Z,99.90
2023-05-10T20:38:19.630Z,99.90
2023-05-10T20:40:47.286Z,99.90
2023-05-10T20:43:14.289Z,99.90
2023-05-10T20:45:41.290Z,99.90
2023-05-10T20:48:08.260Z,99.90
2023-05-10T20:50:35.573Z,99.90
2023-05-10T20:53:02.465Z,99.90
2023-05-10T20:55:29.232Z,99.90
2023-05-10T20:57:56.010Z,99.90
2023-05-10T21:00:22.851Z,99.90
2023-05-10T21:02:49.795Z,99.90
2023-05-10T21:05:18.313Z,99.90
2023-05-10T21:07:45.357Z,99.90
2023-05-10T21:10:12.483Z,99.90
2023-05-10T21:12:39.255Z,99.90
2023-05-10T21:15:06.556Z,99.90
2023-05-10T21:17:33.731Z,99.90
2023-05-10T21:20:00.539Z,99.90
2023-05-10T21:22:27.387Z,99.90
2023-05-10T21:24:54.247Z,99.90
2023-05-10T21:27:21.086Z,99.90
2023-05-10T21:29:47.836Z,99.90
2023-05-10T21:32:14.923Z,99.90
2023-05-10T21:34:41.934Z,99.90
2023-05-10T21:37:08.829Z,99.90
2023-05-10T21:39:35.991Z,99.90
2023-05-10T21:42:03.720Z,99.90
2023-05-10T21:44:31.894Z,99.90
2023-05-10T21:46:59.402Z,99.90
2023-05-10T21:49:26.524Z,99.90
2023-05-10T21:51:53.526Z,99.90
2023-05-10T21:54:20.379Z,99.90
2023-05-10T21:56:47.319Z,99.90
2023-05-10T21:59:14.399Z,99.90
2023-05-10T22:01:41.882Z,99.90
2023-05-10T22:04:08.619Z,99.90
2023-05-10T22:06:35.614Z,99.90
2023-05-10T22:09:02.302Z,99.90
2023-05-10T22:11:29.304Z,99.90
2023-05-10T22:13:56.120Z,99.90
2023-05-10T22:16:22.871Z,99.90
2023-05-10T22:18:49.651Z,99.90
2023-05-10T22:21:16.429Z,99.90
2023-05-10T22:23:43.180Z,99.90
2023-05-10T22:26:09.877Z,99.90
2023-05-10T22:28:36.619Z,99.90
2023-05-10T22:31:03.637Z,99.90
2023-05-10T22:33:30.428Z,99.90
2023-05-10T22:35:57.189Z,99.90
2023-05-10T22:38:24.015Z,99.90
2023-05-10T22:40:50.817Z,99.90
2023-05-10T22:43:18.201Z,99.90
2023-05-10T22:45:44.982Z,99.90
2023-05-10T22:48:11.921Z,99.90
2023-05-10T22:50:38.727Z,99.90
2023-05-10T22:53:06.628Z,99.90
2023-05-10T22:55:33.892Z,99.90
2023-05-10T22:58:01.035Z,99.90
2023-05-10T23:00:27.883Z,99.90
2023-05-10T23:02:54.951Z,99.90
2023-05-10T23:05:21.753Z,99.90
2023-05-10T23:07:53.137Z,99.90
2023-05-10T23:10:20.436Z,99.90
2023-05-10T23:12:47.712Z,99.90
2023-05-10T23:15:14.488Z,99.90
2023-05-10T23:17:41.388Z,99.90
2023-05-10T23:20:08.898Z,99.90
2023-05-10T23:22:36.066Z,99.90
2023-05-10T23:25:03.039Z,99.90
2023-05-10T23:27:30.546Z,99.90
2023-05-10T23:29:57.817Z,99.90
2023-05-10T23:32:24.524Z,99.90
2023-05-10T23:34:51.260Z,99.90
2023-05-10T23:37:17.952Z,99.90
2023-05-10T23:39:44.820Z,99.90
2023-05-10T23:42:11.525Z,99.90
2023-05-10T23:44:38.212Z,99.90
2023-05-10T23:47:05.075Z,99.90
2023-05-10T23:49:31.827Z,99.90
2023-05-10T23:51:58.549Z,99.90
2023-05-10T23:54:25.261Z,99.90
2023-05-10T23:56:52.115Z,99.90
2023-05-10T23:59:18.999Z,99.90
